CheckWX is a tool to help pilots better visualize weather data.  It is not intended as a substitute for an official pre-flight weather briefing.

20:33:58 UTC

UKLR TAF
Rivne International Airport
Rivne, Ukraine
TAF UKLR 221105Z 2212/2221 31007G12MPS 9999 BKN010 SCT013CB TEMPO 2212/2217 33010G16MPS 2100 -SHRA BKN007 BKN013CB

Mar-22@
12:00 UTC

Mar-22 @ 12:00 UTC

Mar-22@
21:00 UTC

Mar-22 @ 21:00 UTC

TAF UKLR 221105Z 2212/2221 31007G12MPS 9999 BKN010 SCT013CB
Wind
  • 310° at 14 KTS
  • {Gusting to 23 KTS
Cloud Levels
  • Broken at 1,000' AGL
  • Scattered at 1,300' AGL

Mar-22@
12:00 UTC

Mar-22 @ 12:00 UTC

Mar-22@
17:00 UTC

Mar-22 @ 17:00 UTC

TEMPO 2212/2217 33010G16MPS 2100 -SHRA BKN007 BKN013CB

Expired

Wind
  • 330° at 19 KTS
  • {Gusting to 31 KTS
Conditions
Light Rain
Cloud Levels
  • Broken at 700' AGL
  • Broken at 1,300' AGL